Time;durP1;ratioP1;P1;durP2;ratioP2;P2;SDS_P1;SDS_P2;PMS_P1;PMS_P2;Temp;Humidity;BMP_temperature;BMP_pressure;BME280_temperature;BME280_humidity;BME280_pressure;Samples;Min_cycle;Max_cycle;Signal;HPM_P1;HPM_P2
2023/04/01 00:01:44;;;;;;;;;;;;;;;26.41;39.43;93276.59;4941379;28;9134;-56
2023/04/01 00:04:10;;;;;;;;;;;;;;;26.39;39.65;93266.13;4919417;28;7468;-56
2023/04/01 00:06:37;;;;;;;;;;;;;;;26.40;39.43;93262.09;4931851;28;7459;-56
2023/04/01 00:09:03;;;;;;;;;;;;;;;26.41;39.72;93268.31;4926264;29;9074;-56
2023/04/01 00:11:29;;;;;;;;;;;;;;;26.40;39.12;93264.09;4924718;29;8970;-56
2023/04/01 00:13:55;;;;;;;;;;;;;;;26.43;39.65;93265.75;4938371;28;9135;-56
2023/04/01 00:16:22;;;;;;;;;;;;;;;26.41;39.70;93268.31;4938321;28;7284;-56
2023/04/01 00:18:59;;;;;;;;;;;;;;;26.38;39.52;93253.59;4925526;28;9444;-56
2023/04/01 00:21:57;;;;;;;;;;;;;;;26.41;39.69;93265.56;4929778;28;9477;-56
2023/04/01 00:25:11;;;;;;;;;;;;;;;26.41;39.51;93271.06;4867472;29;9804;-56
2023/04/01 00:28:08;;;;;;;;;;;;;;;26.41;39.70;93282.09;4856916;29;7047;-56
2023/04/01 00:30:45;;;;;;;;;;;;;;;26.40;39.28;93286.16;4843592;29;7015;-56
2023/04/01 00:33:17;;;;;;;;;;;;;;;26.40;38.86;93286.16;4857456;29;7274;-56
2023/04/01 00:35:44;;;;;;;;;;;;;;;26.40;39.42;93286.16;4852747;29;8382;-56
2023/04/01 00:38:11;;;;;;;;;;;;;;;26.40;39.28;93286.16;4856176;29;8941;-57
2023/04/01 00:40:41;;;;;;;;;;;;;;;26.38;39.48;93283.94;4856624;29;9417;-56
2023/04/01 00:43:20;;;;;;;;;;;;;;;26.41;39.48;93290.38;4868744;29;7198;-56
2023/04/01 00:45:57;;;;;;;;;;;;;;;26.38;39.19;93308.75;4858305;29;7153;-56
2023/04/01 00:48:33;;;;;;;;;;;;;;;26.38;38.84;93292.19;4858340;29;9270;-56
2023/04/01 00:51:09;;;;;;;;;;;;;;;26.39;39.16;93299.19;4865311;29;8986;-56
2023/04/01 00:53:55;;;;;;;;;;;;;;;26.40;39.01;93288.91;4852933;29;7256;-55
2023/04/01 00:56:49;;;;;;;;;;;;;;;26.39;39.48;93293.69;4852449;29;8655;-56
2023/04/01 00:59:26;;;;;;;;;;;;;;;26.41;39.46;93293.13;4872692;29;7105;-56
2023/04/01 01:01:55;;;;;;;;;;;;;;;26.40;39.48;93294.44;4920318;28;7197;-56
2023/04/01 01:04:30;;;;;;;;;;;;;;;26.40;39.09;93291.66;4920362;29;8704;-56
2023/04/01 01:07:17;;;;;;;;;;;;;;;26.40;39.01;93295.19;4964012;28;7171;-55
2023/04/01 01:10:19;;;;;;;;;;;;;;;26.38;39.48;93285.97;5005443;28;9110;-56
2023/04/01 01:13:15;;;;;;;;;;;;;;;26.39;38.93;93284.66;4964408;28;9488;-56
2023/04/01 01:15:48;;;;;;;;;;;;;;;26.38;39.10;93292.19;4909509;29;9105;-56
2023/04/01 01:18:29;;;;;;;;;;;;;;;26.38;39.07;93292.19;4906970;29;6860;-56
2023/04/01 01:21:10;;;;;;;;;;;;;;;26.38;39.75;93288.72;4909066;29;9040;-56
2023/04/01 01:24:03;;;;;;;;;;;;;;;26.37;39.69;93285.22;4910329;29;7228;-56
2023/04/01 01:26:41;;;;;;;;;;;;;;;26.34;39.07;93280.78;4911926;29;9235;-56
2023/04/01 01:29:29;;;;;;;;;;;;;;;26.37;39.26;93287.22;4912965;29;7096;-56
2023/04/01 01:32:05;;;;;;;;;;;;;;;26.35;39.31;93278.75;4909128;29;7289;-56
2023/04/01 01:34:43;;;;;;;;;;;;;;;26.38;39.54;93280.44;4906950;29;9430;-56
2023/04/01 01:37:15;;;;;;;;;;;;;;;26.37;39.24;93273.44;4906005;29;7248;-56
2023/04/01 01:40:03;;;;;;;;;;;;;;;26.37;39.29;93268.69;4906667;29;7037;-56
2023/04/01 01:42:45;;;;;;;;;;;;;;;26.39;39.13;93266.13;4916064;29;7050;-56
2023/04/01 01:45:18;;;;;;;;;;;;;;;26.39;39.50;93276.41;4918209;29;8731;-56
2023/04/01 01:48:11;;;;;;;;;;;;;;;26.34;39.36;93261.47;4930998;29;9070;-56
2023/04/01 01:51:04;;;;;;;;;;;;;;;26.37;39.50;93267.94;4947251;28;9063;-56
2023/04/01 01:54:06;;;;;;;;;;;;;;;26.37;39.56;93251.41;5000213;28;7216;-55
2023/04/01 01:56:33;;;;;;;;;;;;;;;26.36;39.56;93249.94;4952613;28;9094;-56
2023/04/01 01:59:14;;;;;;;;;;;;;;;26.34;38.97;93246.97;4964433;28;7001;-56
2023/04/01 02:02:10;;;;;;;;;;;;;;;26.36;39.80;93241.66;4950171;28;9070;-56
2023/04/01 02:04:45;;;;;;;;;;;;;;;26.36;39.06;93244.41;4889433;29;9153;-56
2023/04/01 02:07:39;;;;;;;;;;;;;;;26.35;39.77;93242.94;4899281;29;8794;-56
2023/04/01 02:10:07;;;;;;;;;;;;;;;26.34;39.49;93242.19;4910883;29;7035;-56
2023/04/01 02:12:48;;;;;;;;;;;;;;;26.36;38.97;93244.41;4898717;29;7216;-56
2023/04/01 02:15:18;;;;;;;;;;;;;;;26.38;38.78;93241.84;4897935;29;7472;-55
2023/04/01 02:17:49;;;;;;;;;;;;;;;26.37;39.52;93237.59;4913708;29;9073;-56
2023/04/01 02:20:23;;;;;;;;;;;;;;;26.37;39.10;93245.88;4889515;29;8786;-55
2023/04/01 02:22:57;;;;;;;;;;;;;;;26.35;39.54;93242.94;4912108;29;9342;-56
2023/04/01 02:25:28;;;;;;;;;;;;;;;26.35;39.31;93237.41;4904185;29;7431;-56
2023/04/01 02:27:58;;;;;;;;;;;;;;;26.36;39.67;93244.41;4893591;29;7288;-56
2023/04/01 02:30:29;;;;;;;;;;;;;;;26.36;39.04;93249.94;4895731;29;9049;-56
2023/04/01 02:32:58;;;;;;;;;;;;;;;26.33;39.48;93245.50;4924540;28;9346;-56
2023/04/01 02:35:26;;;;;;;;;;;;;;;26.37;38.85;93245.88;4930719;28;7199;-55
2023/04/01 02:37:54;;;;;;;;;;;;;;;26.37;39.65;93246.63;4941239;28;7158;-55
2023/04/01 02:40:23;;;;;;;;;;;;;;;26.37;39.58;93251.41;4969311;28;7533;-55
2023/04/01 02:42:51;;;;;;;;;;;;;;;26.36;39.08;93247.19;5035621;28;9274;-56
2023/04/01 02:45:17;;;;;;;;;;;;;;;26.36;39.44;93252.69;5004133;28;7042;-56
2023/04/01 02:47:43;;;;;;;;;;;;;;;26.34;39.08;93244.22;5033891;28;7424;-56
2023/04/01 02:50:11;;;;;;;;;;;;;;;26.35;39.21;93243.66;4995241;28;7296;-56
2023/04/01 02:52:39;;;;;;;;;;;;;;;26.34;39.68;93247.69;5007700;28;7219;-56
2023/04/01 02:55:08;;;;;;;;;;;;;;;26.35;39.70;93242.94;5038278;28;8531;-56
2023/04/01 02:57:34;;;;;;;;;;;;;;;26.36;38.81;93238.91;5010290;28;7319;-56
2023/04/01 03:00:02;;;;;;;;;;;;;;;26.36;39.71;93231.34;5025835;28;7069;-56
2023/04/01 03:02:36;;;;;;;;;;;;;;;26.37;39.04;93240.38;5036517;28;9087;-56
2023/04/01 03:05:03;;;;;;;;;;;;;;;26.34;38.95;93231.16;5025975;28;7206;-56
2023/04/01 03:07:29;;;;;;;;;;;;;;;26.34;39.51;93227.69;5008728;28;6993;-56
2023/04/01 03:09:55;;;;;;;;;;;;;;;26.33;39.71;93223.44;4999597;28;7048;-56
2023/04/01 03:12:23;;;;;;;;;;;;;;;26.34;39.23;93219.41;4996544;28;7303;-56
2023/04/01 03:14:50;;;;;;;;;;;;;;;26.34;39.53;93220.13;5007945;28;7034;-56
2023/04/01 03:17:17;;;;;;;;;;;;;;;26.34;39.58;93225.66;5000479;28;9201;-56
2023/04/01 03:19:43;;;;;;;;;;;;;;;26.35;39.61;93221.63;4999418;28;9531;-56
2023/04/01 03:22:11;;;;;;;;;;;;;;;26.33;39.68;93226.19;5006401;28;9173;-55
2023/04/01 03:24:47;;;;;;;;;;;;;;;26.32;39.11;93230.25;5003876;28;7263;-56
2023/04/01 03:27:14;;;;;;;;;;;;;;;26.33;38.96;93231.72;5001562;28;8994;-56
2023/04/01 03:29:42;;;;;;;;;;;;;;;26.33;39.55;93234.47;5033074;28;9139;-56
2023/04/01 03:32:14;;;;;;;;;;;;;;;26.34;39.47;93241.47;5008985;28;7648;-56
2023/04/01 03:34:56;;;;;;;;;;;;;;;26.34;38.87;93238.72;5007979;28;8833;-56
2023/04/01 03:37:50;;;;;;;;;;;;;;;26.33;39.62;93235.22;4995723;28;9173;-56
2023/04/01 03:40:16;;;;;;;;;;;;;;;26.34;39.07;93235.97;5004394;28;7397;-55
2023/04/01 03:43:06;;;;;;;;;;;;;;;26.32;39.04;93233.72;5037824;28;9230;-56
2023/04/01 03:45:32;;;;;;;;;;;;;;;26.30;39.00;93219.75;4996877;28;8940;-56
2023/04/01 03:48:03;;;;;;;;;;;;;;;26.31;39.69;93232.25;5012839;28;8939;-56
2023/04/01 03:50:29;;;;;;;;;;;;;;;26.32;39.11;93227.50;4998708;28;9048;-56
2023/04/01 03:52:59;;;;;;;;;;;;;;;26.33;39.61;93223.44;5002642;28;7028;-56
2023/04/01 03:55:40;;;;;;;;;;;;;;;26.33;38.98;93229.69;5011652;28;8497;-56
2023/04/01 03:58:09;;;;;;;;;;;;;;;26.34;39.42;93241.47;5013545;28;9471;-56
2023/04/01 04:01:15;;;;;;;;;;;;;;;26.32;39.70;93238.53;4997998;28;7151;-56
2023/04/01 04:04:10;;;;;;;;;;;;;;;26.30;39.59;93233.53;4942291;28;9078;-56
2023/04/01 04:06:49;;;;;;;;;;;;;;;26.29;38.87;93221.03;4962871;28;9116;-55
2023/04/01 04:09:30;;;;;;;;;;;;;;;26.28;39.38;93225.06;4962370;28;9071;-56
2023/04/01 04:12:05;;;;;;;;;;;;;;;26.30;39.80;93221.75;4939452;28;7226;-56
2023/04/01 04:14:50;;;;;;;;;;;;;;;26.31;39.20;93212.22;4938300;28;9095;-56
2023/04/01 04:17:36;;;;;;;;;;;;;;;26.30;39.33;93221.75;4951372;28;9171;-56
2023/04/01 04:20:14;;;;;;;;;;;;;;;26.29;39.34;93234.09;4947926;28;9122;-56
2023/04/01 04:22:42;;;;;;;;;;;;;;;26.28;38.86;93227.81;4942604;28;9027;-56
2023/04/01 04:25:26;;;;;;;;;;;;;;;26.28;38.87;93222.31;4962520;28;9137;-56
2023/04/01 04:27:53;;;;;;;;;;;;;;;26.29;39.03;93223.06;4958618;28;8742;-56
2023/04/01 04:30:20;;;;;;;;;;;;;;;26.28;39.29;93221.56;4944314;28;8188;-56
2023/04/01 04:33:05;;;;;;;;;;;;;;;26.30;39.01;93230.03;4952333;28;9127;-56
2023/04/01 04:36:02;;;;;;;;;;;;;;;26.29;39.09;93231.31;4957735;28;7263;-56
2023/04/01 04:38:35;;;;;;;;;;;;;;;26.24;38.96;93232.94;4930689;28;9006;-56
2023/04/01 04:41:14;;;;;;;;;;;;;;;26.21;39.84;93230.56;4971702;28;7427;-56
2023/04/01 04:43:41;;;;;;;;;;;;;;;26.25;39.56;93233.69;4971768;28;7288;-56
2023/04/01 04:46:21;;;;;;;;;;;;;;;26.26;40.03;93240.66;4945554;28;7160;-56
2023/04/01 04:48:47;;;;;;;;;;;;;;;26.24;39.53;93237.72;4968179;28;9239;-56
2023/04/01 04:51:17;;;;;;;;;;;;;;;26.28;39.83;93260.16;4951503;28;9218;-55
2023/04/01 04:53:50;;;;;;;;;;;;;;;26.26;39.58;93271.72;4949013;28;9070;-56
2023/04/01 04:56:20;;;;;;;;;;;;;;;26.28;39.09;93263.66;4968337;28;9347;-55
2023/04/01 04:58:47;;;;;;;;;;;;;;;26.24;39.69;93268.03;4968224;28;8927;-56
2023/04/01 05:01:25;;;;;;;;;;;;;;;26.27;39.08;93253.94;4946711;28;6945;-56
2023/04/01 05:04:12;;;;;;;;;;;;;;;26.27;39.98;93272.47;4953977;28;8760;-55
2023/04/01 05:06:41;;;;;;;;;;;;;;;26.27;39.10;93273.22;4943396;28;7477;-56
2023/04/01 05:09:16;;;;;;;;;;;;;;;26.25;39.49;93256.50;4960165;28;7409;-55
2023/04/01 05:12:02;;;;;;;;;;;;;;;26.26;39.96;93279.25;4951799;28;9296;-55
2023/04/01 05:14:32;;;;;;;;;;;;;;;26.23;39.84;93275.56;4979798;28;7490;-55
2023/04/01 05:17:01;;;;;;;;;;;;;;;26.21;39.67;93285.69;5008903;28;8974;-55
2023/04/01 05:19:27;;;;;;;;;;;;;;;26.22;39.74;93278.88;5032460;28;7021;-55
2023/04/01 05:22:02;;;;;;;;;;;;;;;26.21;39.46;93271.91;5008460;28;7203;-55
2023/04/01 05:24:38;;;;;;;;;;;;;;;26.23;40.15;93269.34;5009558;28;7165;-56
2023/04/01 05:27:04;;;;;;;;;;;;;;;26.23;39.61;93272.09;5027671;28;9118;-56
2023/04/01 05:29:59;;;;;;;;;;;;;;;26.20;39.54;93270.41;5032177;28;7056;-55
2023/04/01 05:32:29;;;;;;;;;;;;;;;26.21;40.02;93271.91;4917192;29;7469;-56
2023/04/01 05:35:01;;;;;;;;;;;;;;;26.23;40.08;93274.84;4921766;29;9295;-55
2023/04/01 05:37:34;;;;;;;;;;;;;;;26.25;39.36;93275.03;4913962;29;9063;-55
2023/04/01 05:40:03;;;;;;;;;;;;;;;26.24;39.67;93271.53;4933566;29;7198;-55
2023/04/01 05:42:29;;;;;;;;;;;;;;;26.25;39.82;93286.06;4931250;29;6996;-55
2023/04/01 05:44:56;;;;;;;;;;;;;;;26.26;39.33;93277.25;4940739;29;7172;-55
2023/04/01 05:47:24;;;;;;;;;;;;;;;26.26;39.32;93277.25;4923392;29;8280;-56
2023/04/01 05:49:59;;;;;;;;;;;;;;;26.26;39.88;93279.25;4933016;29;7477;-55
2023/04/01 05:52:26;;;;;;;;;;;;;;;26.28;39.35;93277.44;4931562;29;8054;-56
2023/04/01 05:54:52;;;;;;;;;;;;;;;26.27;39.96;93281.50;4927481;29;7036;-55
2023/04/01 05:57:19;;;;;;;;;;;;;;;26.25;40.12;93278.53;4932024;29;8571;-56
2023/04/01 05:59:55;;;;;;;;;;;;;;;26.19;39.72;93274.47;4923476;29;8334;-56
2023/04/01 06:02:27;;;;;;;;;;;;;;;26.23;39.61;93281.06;4896918;29;7226;-56
2023/04/01 06:05:24;;;;;;;;;;;;;;;26.25;39.96;93273.03;4910373;29;7852;-56
2023/04/01 06:07:58;;;;;;;;;;;;;;;26.24;39.85;93265.28;4909688;28;7124;-55
2023/04/01 06:10:56;;;;;;;;;;;;;;;26.20;40.25;93278.66;5016455;28;7941;-56
2023/04/01 06:13:24;;;;;;;;;;;;;;;26.23;40.16;93285.88;5012115;28;9458;-55
2023/04/01 06:16:58;;;;;;;;;;;;;;;26.23;40.12;93283.13;5005867;28;7131;-56
2023/04/01 06:19:50;;;;;;;;;;;;;;;26.22;39.42;93292.66;4876963;29;7185;-55
2023/04/01 06:22:35;;;;;;;;;;;;;;;26.15;40.05;93288.56;4879190;29;9190;-55
2023/04/01 06:25:47;;;;;;;;;;;;;;;26.11;40.59;93285.41;4877981;29;8968;-55
2023/04/01 06:28:45;;;;;;;;;;;;;;;26.09;39.90;93296.97;4839495;29;9197;-55
2023/04/01 06:31:49;;;;;;;;;;;;;;;26.11;39.74;93293.69;4841759;29;9120;-55
2023/04/01 06:34:43;;;;;;;;;;;;;;;26.08;40.89;93291.97;4837622;29;7049;-56
2023/04/01 06:37:12;;;;;;;;;;;;;;;26.09;40.69;93299.00;4828691;29;9872;-56
2023/04/01 06:39:41;;;;;;;;;;;;;;;26.07;40.70;93288.50;4842521;29;9112;-56
2023/04/01 06:42:39;;;;;;;;;;;;;;;26.06;40.49;93286.25;4829178;29;9142;-55
2023/04/01 06:45:30;;;;;;;;;;;;;;;26.05;40.21;93282.03;4801983;29;8760;-55
2023/04/01 06:48:31;;;;;;;;;;;;;;;26.04;40.43;93275.78;4792244;29;7687;-55
2023/04/01 06:51:36;;;;;;;;;;;;;;;26.09;42.51;93276.94;4837054;29;6857;-56
2023/04/01 06:54:18;;;;;;;;;;;;;;;26.14;42.73;93265.06;4839621;29;9050;-56
2023/04/01 06:57:12;;;;;;;;;;;;;;;26.20;41.13;93271.16;4844120;29;7248;-55
2023/04/01 06:59:44;;;;;;;;;;;;;;;26.24;41.37;93262.53;4848596;29;8679;-56
2023/04/01 07:02:10;;;;;;;;;;;;;;;26.20;41.02;93265.63;4857624;29;7055;-56
2023/04/01 07:04:44;;;;;;;;;;;;;;;26.20;41.30;93268.38;4915383;28;7281;-56
2023/04/01 07:07:59;;;;;;;;;;;;;;;26.23;41.08;93269.34;4954079;28;8740;-56
2023/04/01 07:14:24;;;;;;;;;;;;;;;26.08;41.44;93270.69;4936694;28;8205;-56
2023/04/01 07:17:17;;;;;;;;;;;;;;;26.05;41.57;93268.25;4912821;29;8752;-55
2023/04/01 07:19:54;;;;;;;;;;;;;;;26.09;41.42;93269.44;4910482;29;7060;-56
2023/04/01 07:22:44;;;;;;;;;;;;;;;26.14;41.63;93274.03;4935612;28;9547;-56
2023/04/01 07:25:16;;;;;;;;;;;;;;;26.16;41.47;93265.97;4934001;28;7064;-56
2023/04/01 07:28:04;;;;;;;;;;;;;;;26.18;41.10;93273.72;4933217;28;9444;-56
2023/04/01 07:31:08;;;;;;;;;;;;;;;26.20;41.27;93275.91;4931882;28;9058;-56
2023/04/01 07:34:00;;;;;;;;;;;;;;;26.21;41.21;93271.91;4926224;28;7967;-56
2023/04/01 07:36:37;;;;;;;;;;;;;;;26.20;41.11;93270.41;4936064;28;9307;-56
2023/04/01 07:39:29;;;;;;;;;;;;;;;26.23;41.07;93280.34;4927968;28;9170;-56
2023/04/01 07:42:50;;;;;;;;;;;;;;;26.24;40.99;93281.81;4925035;28;9053;-56
2023/04/01 07:45:57;;;;;;;;;;;;;;;26.24;40.50;93271.53;4823882;29;7118;-56
2023/04/01 07:48:49;;;;;;;;;;;;;;;26.26;40.76;93280.00;4810961;29;9142;-56
2023/04/01 07:51:54;;;;;;;;;;;;;;;26.27;41.05;93286.25;4834840;29;9172;-56
2023/04/01 07:54:29;;;;;;;;;;;;;;;26.27;40.70;93287.00;4864646;29;7068;-56
2023/04/01 07:57:27;;;;;;;;;;;;;;;26.28;40.52;93293.22;4885384;29;8729;-56
2023/04/01 08:00:03;;;;;;;;;;;;;;;26.30;40.48;93294.19;4885140;29;7393;-56
2023/04/01 08:02:44;;;;;;;;;;;;;;;26.30;40.89;93294.19;4887141;29;8011;-56
2023/04/01 08:05:30;;;;;;;;;;;;;;;26.30;39.39;93296.19;4890059;29;8948;-56
2023/04/01 08:08:40;;;;;;;;;;;;;;;26.29;39.25;93286.44;4875151;29;9672;-56
2023/04/01 08:11:34;;;;;;;;;;;;;;;26.28;39.26;93293.97;4888886;29;9048;-55
2023/04/01 08:14:06;;;;;;;;;;;;;;;26.29;38.87;93300.97;4890652;29;9053;-56
2023/04/01 08:20:42;;;;;;;;;;;;;;;26.34;39.00;93293.84;4864673;29;9193;-56
2023/04/01 08:23:29;;;;;;;;;;;;;;;26.34;39.00;93302.13;4991295;28;8957;-55
2023/04/01 08:26:31;;;;;;;;;;;;;;;26.34;39.57;93302.13;4985860;28;7023;-56
2023/04/01 08:29:12;;;;;;;;;;;;;;;26.33;38.71;93300.63;4945273;28;7642;-55
2023/04/01 08:32:11;;;;;;;;;;;;;;;26.32;39.00;93305.41;4993347;28;9179;-55
2023/04/01 08:34:42;;;;;;;;;;;;;;;26.30;39.79;93302.44;4983202;28;7634;-55
2023/04/01 08:37:36;;;;;;;;;;;;;;;26.32;39.50;93299.88;5001234;28;8829;-56
2023/04/01 08:40:32;;;;;;;;;;;;;;;26.32;38.85;93299.16;5083962;27;1324072;-56
2023/04/01 08:43:52;;;;;;;;;;;;;;;26.30;38.99;93296.19;5091394;28;7860;-56
2023/04/01 08:46:34;;;;;;;;;;;;;;;26.30;39.76;93298.94;5096077;28;7040;-56
2023/04/01 08:49:26;;;;;;;;;;;;;;;26.29;39.09;93294.72;5096449;28;9322;-56
2023/04/01 08:52:26;;;;;;;;;;;;;;;26.30;39.08;93296.94;5087879;28;7012;-56
2023/04/01 08:55:37;;;;;;;;;;;;;;;26.29;39.77;93300.25;5078805;28;7747;-56
2023/04/01 08:58:26;;;;;;;;;;;;;;;26.25;40.18;93295.06;5105157;28;7635;-56
2023/04/01 09:01:24;;;;;;;;;;;;;;;26.28;39.81;93296.72;5103133;28;7250;-56
2023/04/01 09:04:07;;;;;;;;;;;;;;;26.28;39.88;93293.97;5080720;28;7057;-56
2023/04/01 09:06:58;;;;;;;;;;;;;;;26.24;39.76;93290.09;5076096;28;8588;-56
2023/04/01 09:09:45;;;;;;;;;;;;;;;26.26;40.02;93293.03;5066419;28;8597;-56
2023/04/01 09:12:14;;;;;;;;;;;;;;;26.26;40.17;93291.03;5069003;28;6999;-56
2023/04/01 09:15:02;;;;;;;;;;;;;;;26.26;39.35;93291.03;5074223;28;7875;-56
2023/04/01 09:18:16;;;;;;;;;;;;;;;26.24;40.00;93285.31;5066855;28;7042;-56
2023/04/01 09:21:15;;;;;;;;;;;;;;;26.21;40.00;93293.94;5068913;28;9180;-56
2023/04/01 09:24:25;;;;;;;;;;;;;;;26.24;39.83;93293.59;5068974;28;9381;-56
2023/04/01 09:27:19;;;;;;;;;;;;;;;26.24;40.20;93298.34;5082993;28;7521;-56
2023/04/01 09:29:53;;;;;;;;;;;;;;;26.26;39.89;93301.31;5084968;28;9007;-56
2023/04/01 09:33:12;;;;;;;;;;;;;;;26.24;39.26;93293.59;5070434;28;7241;-56
2023/04/01 09:36:07;;;;;;;;;;;;;;;26.19;39.96;93291.00;5084778;28;9268;-56
2023/04/01 09:38:50;;;;;;;;;;;;;;;26.23;39.82;93302.41;5068772;28;8995;-57
2023/04/01 09:42:11;;;;;;;;;;;;;;;26.20;39.50;93292.44;5081377;28;7224;-56
2023/04/01 09:44:56;;;;;;;;;;;;;;;26.11;40.04;93291.66;4961999;28;7783;-56
2023/04/01 09:48:00;;;;;;;;;;;;;;;26.10;39.68;93301.19;4969004;28;7170;-56
2023/04/01 09:50:38;;;;;;;;;;;;;;;26.07;40.05;93296.75;4947184;28;9277;-56
2023/04/01 09:53:20;;;;;;;;;;;;;;;26.07;39.61;93282.25;4938553;28;6932;-56
2023/04/01 09:56:40;;;;;;;;;;;;;;;26.11;40.36;93297.19;4944926;28;7274;-56
2023/04/01 09:59:40;;;;;;;;;;;;;;;26.19;39.83;93297.22;4936457;28;7391;-56
2023/04/01 10:02:12;;;;;;;;;;;;;;;26.21;40.36;93297.41;4935898;28;7538;-57
2023/04/01 10:05:32;;;;;;;;;;;;;;;26.23;39.67;93292.09;4940948;28;7050;-57
2023/04/01 10:08:30;;;;;;;;;;;;;;;26.25;39.77;93302.59;4940965;28;7081;-57
2023/04/01 10:11:28;;;;;;;;;;;;;;;26.25;39.98;93288.81;4937087;28;7110;-57
2023/04/01 10:14:23;;;;;;;;;;;;;;;26.23;40.14;93303.13;4936043;28;7115;-57
2023/04/01 10:17:39;;;;;;;;;;;;;;;26.24;39.67;93306.63;4917229;29;7271;-57
2023/04/01 10:20:35;;;;;;;;;;;;;;;26.26;39.21;93301.31;4900404;29;9055;-57
2023/04/01 10:23:26;;;;;;;;;;;;;;;26.25;39.84;93300.59;4940990;28;7009;-57
2023/04/01 10:26:23;;;;;;;;;;;;;;;26.26;40.02;93295.78;4931610;28;7313;-56
2023/04/01 10:29:06;;;;;;;;;;;;;;;26.26;39.79;93288.28;4932886;28;8897;-56
2023/04/01 10:32:17;;;;;;;;;;;;;;;26.27;39.78;93287.00;4923458;28;7223;-56
2023/04/01 10:35:15;;;;;;;;;;;;;;;26.26;39.72;93277.25;4936186;28;9172;-57
2023/04/01 10:38:25;;;;;;;;;;;;;;;26.27;39.82;93287.00;4937757;28;9096;-56
2023/04/01 10:41:25;;;;;;;;;;;;;;;26.20;39.77;93286.94;4938272;28;7091;-57
2023/04/01 10:44:42;;;;;;;;;;;;;;;26.16;39.34;93292.81;4942297;28;7246;-56
2023/04/01 10:47:46;;;;;;;;;;;;;;;26.14;39.65;93290.56;4919168;29;7634;-57
2023/04/01 10:50:56;;;;;;;;;;;;;;;26.21;40.06;93282.91;4903247;28;7301;-56
2023/04/01 10:53:40;;;;;;;;;;;;;;;26.21;39.73;93266.38;4962527;28;7288;-56
2023/04/01 10:56:27;;;;;;;;;;;;;;;26.23;39.99;93275.56;4969445;28;7036;-57
2023/04/01 10:59:02;;;;;;;;;;;;;;;26.26;39.83;93284.78;4970681;28;7255;-56
2023/04/01 11:01:54;;;;;;;;;;;;;;;26.25;39.26;93295.06;4947878;28;7253;-56
2023/04/01 11:04:53;;;;;;;;;;;;;;;26.26;39.67;93288.28;4927817;28;7074;-56
2023/04/01 11:08:03;;;;;;;;;;;;;;;26.25;39.44;93295.06;4929991;28;9519;-56
2023/04/01 11:14:49;;;;;;;;;;;;;;;26.29;39.43;93284.44;4972478;28;9084;-56
2023/04/01 11:17:17;;;;;;;;;;;;;;;26.31;39.91;93283.91;4969208;28;9113;-56
2023/04/01 11:20:23;;;;;;;;;;;;;;;26.30;39.06;93287.91;4970685;28;7293;-57
2023/04/01 11:23:15;;;;;;;;;;;;;;;26.32;38.84;93285.38;4966981;28;8827;-56
2023/04/01 11:26:08;;;;;;;;;;;;;;;26.33;39.03;93304.13;4953285;28;7196;-57
2023/04/01 11:29:20;;;;;;;;;;;;;;;26.33;38.72;93308.91;4969772;28;7243;-57
2023/04/01 11:32:12;;;;;;;;;;;;;;;26.36;38.71;93288.53;4966723;28;9131;-57
2023/04/01 11:34:58;;;;;;;;;;;;;;;26.37;38.62;93306.53;4970932;28;7019;-56
2023/04/01 11:37:39;;;;;;;;;;;;;;;26.38;38.46;93303.22;4972976;28;7513;-56
2023/04/01 11:40:31;;;;;;;;;;;;;;;26.37;39.01;93309.28;4971325;28;9021;-56
2023/04/01 11:43:26;;;;;;;;;;;;;;;26.38;39.39;93310.78;5047618;28;7091;-57
2023/04/01 11:46:27;;;;;;;;;;;;;;;26.38;39.16;93302.50;5059288;28;8108;-57
2023/04/01 11:49:36;;;;;;;;;;;;;;;26.38;39.11;93286.69;5061860;28;7438;-57
2023/04/01 11:52:32;;;;;;;;;;;;;;;26.35;38.57;93290.53;5050539;28;9588;-57
2023/04/01 11:55:26;;;;;;;;;;;;;;;26.26;39.32;93291.03;5057235;28;8883;-57
2023/04/01 12:01:44;;;;;;;;;;;;;;;26.28;39.49;93310.53;5047081;28;9101;-56
2023/04/01 12:04:57;;;;;;;;;;;;;;;26.31;38.65;93314.22;5038913;28;7233;-56
2023/04/01 12:07:59;;;;;;;;;;;;;;;26.33;39.22;93311.66;5034043;28;9131;-56
2023/04/01 12:10:46;;;;;;;;;;;;;;;26.31;38.90;93298.41;5028768;28;7152;-56
2023/04/01 12:13:50;;;;;;;;;;;;;;;26.27;39.20;93298.03;5044833;28;9090;-56
2023/04/01 12:16:54;;;;;;;;;;;;;;;26.27;39.35;93294.53;5029393;28;7335;-56
2023/04/01 12:19:39;;;;;;;;;;;;;;;26.25;39.66;93303.34;4980402;28;7114;-56
2023/04/01 12:22:31;;;;;;;;;;;;;;;26.26;39.65;93295.78;4967354;28;9170;-56
2023/04/01 12:25:40;;;;;;;;;;;;;;;26.28;39.02;93290.47;4963224;28;7351;-56
2023/04/01 12:28:36;;;;;;;;;;;;;;;26.31;38.98;93298.41;4989811;28;9046;-56
2023/04/01 12:31:17;;;;;;;;;;;;;;;26.33;38.54;93311.66;4967951;28;7132;-56
2023/04/01 12:34:41;;;;;;;;;;;;;;;26.32;38.65;93301.91;4973218;28;7007;-56
2023/04/01 12:37:55;;;;;;;;;;;;;;;26.33;39.18;93312.41;4987524;28;9441;-57
2023/04/01 12:44:35;;;;;;;;;;;;;;;26.34;38.59;93300.06;4948276;28;6796;-56
2023/04/01 12:47:24;;;;;;;;;;;;;;;26.35;38.96;93303.56;4951126;28;7285;-56
2023/04/01 12:53:52;;;;;;;;;;;;;;;26.33;38.72;93295.13;5002887;28;9160;-56
2023/04/01 12:57:11;;;;;;;;;;;;;;;26.36;39.38;93292.00;4991712;28;9502;-57
2023/04/01 13:00:22;;;;;;;;;;;;;;;26.35;39.57;93293.28;4991595;28;7278;-56
2023/04/01 13:03:27;;;;;;;;;;;;;;;26.36;39.67;93289.25;4982271;28;8304;-56
2023/04/01 13:06:01;;;;;;;;;;;;;;;26.40;38.94;93294.44;4993852;28;7096;-56
2023/04/01 13:08:29;;;;;;;;;;;;;;;26.39;38.85;93295.69;4989155;28;7913;-56
2023/04/01 13:11:39;;;;;;;;;;;;;;;26.40;39.59;93299.94;4990984;28;7374;-56
2023/04/01 13:14:32;;;;;;;;;;;;;;;26.40;39.46;93295.19;4989581;28;7205;-57
2023/04/01 13:17:40;;;;;;;;;;;;;;;26.36;39.17;93292.00;4986198;28;7044;-56
2023/04/01 13:20:39;;;;;;;;;;;;;;;26.37;38.93;93293.50;5004141;28;9120;-56
2023/04/01 13:23:44;;;;;;;;;;;;;;;26.36;39.20;93294.03;4983297;28;7181;-56
2023/04/01 13:26:54;;;;;;;;;;;;;;;26.38;38.82;93297.00;4997219;28;7044;-56
2023/04/01 13:29:59;;;;;;;;;;;;;;;26.37;38.87;93285.22;5004718;28;7036;-56
2023/04/01 13:32:42;;;;;;;;;;;;;;;26.39;39.05;93290.94;5055364;28;7039;-56
2023/04/01 13:35:15;;;;;;;;;;;;;;;26.37;39.04;93276.94;5060570;28;6931;-57
2023/04/01 13:38:02;;;;;;;;;;;;;;;26.40;39.73;93278.63;5046346;28;7176;-56
2023/04/01 13:41:15;;;;;;;;;;;;;;;26.40;39.23;93269.63;5060199;28;8986;-56
2023/04/01 13:44:09;;;;;;;;;;;;;;;26.38;40.25;93267.38;4970572;28;9206;-56
2023/04/01 13:50:30;;;;;;;;;;;;;;;26.36;39.91;93277.50;4967288;28;7098;-57
2023/04/01 13:53:30;;;;;;;;;;;;;;;26.34;39.65;93280.06;4942346;28;7295;-57
2023/04/01 13:56:05;;;;;;;;;;;;;;;26.38;40.00;93274.94;4976944;28;8978;-56
2023/04/01 13:58:51;;;;;;;;;;;;;;;26.39;39.74;93265.38;4956397;28;9581;-56
2023/04/01 14:01:29;;;;;;;;;;;;;;;26.42;39.72;93278.09;4966348;28;7455;-56
2023/04/01 14:04:17;;;;;;;;;;;;;;;26.43;39.83;93268.50;4953958;28;9380;-56
2023/04/01 14:07:08;;;;;;;;;;;;;;;26.43;39.40;93272.00;4962556;28;7030;-56
2023/04/01 14:10:06;;;;;;;;;;;;;;;26.45;39.98;93263.19;4958494;28;7049;-56
2023/04/01 14:12:56;;;;;;;;;;;;;;;26.46;39.70;93265.44;4918278;29;7350;-56
2023/04/01 14:16:00;;;;;;;;;;;;;;;26.46;39.79;93251.63;4913323;29;9085;-57
2023/04/01 14:18:47;;;;;;;;;;;;;;;26.46;39.68;93256.41;4959950;28;9139;-57
2023/04/01 14:21:34;;;;;;;;;;;;;;;26.47;40.12;93239.31;4953457;28;7449;-56
2023/04/01 14:24:21;;;;;;;;;;;;;;;26.49;39.99;93247.06;4972442;28;8698;-57
2023/04/01 14:27:02;;;;;;;;;;;;;;;26.50;39.38;93245.75;4955024;28;7572;-56
2023/04/01 14:29:46;;;;;;;;;;;;;;;26.52;39.47;93240.44;4971778;28;7216;-57
2023/04/01 14:33:03;;;;;;;;;;;;;;;26.51;39.42;93244.50;4955944;28;8100;-56
2023/04/01 14:36:12;;;;;;;;;;;;;;;26.51;39.80;93250.00;4969388;28;6997;-57
2023/04/01 14:39:22;;;;;;;;;;;;;;;26.48;39.47;93240.81;4928403;28;7166;-56
2023/04/01 14:42:31;;;;;;;;;;;;;;;26.51;39.60;93247.97;4937253;28;7063;-56
2023/04/01 14:45:05;;;;;;;;;;;;;;;26.49;39.65;93256.06;4931835;28;7650;-56
2023/04/01 14:47:47;;;;;;;;;;;;;;;26.52;39.40;93262.50;4935714;28;7030;-56
2023/04/01 14:50:21;;;;;;;;;;;;;;;26.48;39.83;93259.34;4975563;28;7044;-56
2023/04/01 14:53:11;;;;;;;;;;;;;;;26.51;39.97;93266.56;4991311;28;7204;-57
2023/04/01 14:55:56;;;;;;;;;;;;;;;26.52;39.24;93265.25;5004724;28;9052;-56
2023/04/01 14:58:26;;;;;;;;;;;;;;;26.51;40.29;93277.59;4995480;28;8368;-56
2023/04/01 15:04:10;;;;;;;;;;;;;;;26.54;40.00;93276.47;5002287;28;7229;-56